sensor_id;sensor_type;location;lat;lon;timestamp;temperature;humidity
17948;DHT22;9099;47.958;11.366;2023-07-09T00:02:12;21.30;99.90
17948;DHT22;9099;47.958;11.366;2023-07-09T00:04:40;21.30;99.90
17948;DHT22;9099;47.958;11.366;2023-07-09T00:07:14;21.20;99.90
17948;DHT22;9099;47.958;11.366;2023-07-09T00:09:41;21.20;99.90
17948;DHT22;9099;47.958;11.366;2023-07-09T00:12:13;21.20;99.90
17948;DHT22;9099;47.958;11.366;2023-07-09T00:14:40;21.20;99.90
17948;DHT22;9099;47.958;11.366;2023-07-09T00:17:09;21.20;99.90
17948;DHT22;9099;47.958;11.366;2023-07-09T00:19:38;21.20;99.90
17948;DHT22;9099;47.958;11.366;2023-07-09T00:22:14;21.10;99.90
17948;DHT22;9099;47.958;11.366;2023-07-09T00:24:43;21.10;99.90
17948;DHT22;9099;47.958;11.366;2023-07-09T00:27:11;21.10;99.90
17948;DHT22;9099;47.958;11.366;2023-07-09T00:29:38;21.10;99.90
17948;DHT22;9099;47.958;11.366;2023-07-09T00:32:10;21.10;99.90
17948;DHT22;9099;47.958;11.366;2023-07-09T00:34:39;21.10;99.90
17948;DHT22;9099;47.958;11.366;2023-07-09T00:37:10;21.00;99.90
17948;DHT22;9099;47.958;11.366;2023-07-09T00:39:38;21.00;99.90
17948;DHT22;9099;47.958;11.366;2023-07-09T00:42:07;20.90;99.90
17948;DHT22;9099;47.958;11.366;2023-07-09T00:44:37;20.80;99.90
17948;DHT22;9099;47.958;11.366;2023-07-09T00:47:25;20.80;99.90
17948;DHT22;9099;47.958;11.366;2023-07-09T00:50:03;20.70;99.90
17948;DHT22;9099;47.958;11.366;2023-07-09T00:52:38;20.70;99.90
17948;DHT22;9099;47.958;11.366;2023-07-09T00:55:10;20.60;99.90
17948;DHT22;9099;47.958;11.366;2023-07-09T00:57:40;20.60;99.90
17948;DHT22;9099;47.958;11.366;2023-07-09T01:00:11;20.50;99.90
17948;DHT22;9099;47.958;11.366;2023-07-09T01:02:44;20.50;99.90
17948;DHT22;9099;47.958;11.366;2023-07-09T01:05:15;20.40;99.90
17948;DHT22;9099;47.958;11.366;2023-07-09T01:07:45;20.30;99.90
17948;DHT22;9099;47.958;11.366;2023-07-09T01:10:14;20.20;99.90
17948;DHT22;9099;47.958;11.366;2023-07-09T01:12:42;20.00;99.90
17948;DHT22;9099;47.958;11.366;2023-07-09T01:15:09;20.00;99.90
17948;DHT22;9099;47.958;11.366;2023-07-09T01:17:38;19.90;99.90
17948;DHT22;9099;47.958;11.366;2023-07-09T01:20:07;19.80;99.90
17948;DHT22;9099;47.958;11.366;2023-07-09T01:22:36;19.80;99.90
17948;DHT22;9099;47.958;11.366;2023-07-09T01:25:05;19.70;99.90
17948;DHT22;9099;47.958;11.366;2023-07-09T01:27:35;19.70;99.90
17948;DHT22;9099;47.958;11.366;2023-07-09T01:30:06;19.70;99.90
17948;DHT22;9099;47.958;11.366;2023-07-09T01:32:34;19.60;99.90
17948;DHT22;9099;47.958;11.366;2023-07-09T01:35:03;19.70;99.90
17948;DHT22;9099;47.958;11.366;2023-07-09T01:37:34;19.70;99.90
17948;DHT22;9099;47.958;11.366;2023-07-09T01:40:03;19.70;99.90
17948;DHT22;9099;47.958;11.366;2023-07-09T01:42:30;19.70;99.90
17948;DHT22;9099;47.958;11.366;2023-07-09T01:44:57;19.60;99.90
17948;DHT22;9099;47.958;11.366;2023-07-09T01:47:24;19.60;99.90
17948;DHT22;9099;47.958;11.366;2023-07-09T01:49:51;19.50;99.90
17948;DHT22;9099;47.958;11.366;2023-07-09T01:52:24;19.50;99.90
17948;DHT22;9099;47.958;11.366;2023-07-09T01:54:53;19.50;99.90
17948;DHT22;9099;47.958;11.366;2023-07-09T01:57:22;19.50;99.90
17948;DHT22;9099;47.958;11.366;2023-07-09T01:59:50;19.50;99.90
17948;DHT22;9099;47.958;11.366;2023-07-09T02:02:18;19.40;99.90
17948;DHT22;9099;47.958;11.366;2023-07-09T02:04:49;19.30;99.90
17948;DHT22;9099;47.958;11.366;2023-07-09T02:07:18;19.30;99.90
17948;DHT22;9099;47.958;11.366;2023-07-09T02:09:45;19.30;99.90
17948;DHT22;9099;47.958;11.366;2023-07-09T02:12:14;19.20;99.90
17948;DHT22;9099;47.958;11.366;2023-07-09T02:14:44;19.10;99.90
17948;DHT22;9099;47.958;11.366;2023-07-09T02:17:11;19.10;99.90
17948;DHT22;9099;47.958;11.366;2023-07-09T02:19:39;19.10;99.90
17948;DHT22;9099;47.958;11.366;2023-07-09T02:22:06;19.10;99.90
17948;DHT22;9099;47.958;11.366;2023-07-09T02:24:34;19.10;99.90
17948;DHT22;9099;47.958;11.366;2023-07-09T02:27:02;19.10;99.90
17948;DHT22;9099;47.958;11.366;2023-07-09T02:29:30;19.00;99.90
17948;DHT22;9099;47.958;11.366;2023-07-09T02:32:00;19.00;99.90
17948;DHT22;9099;47.958;11.366;2023-07-09T02:34:27;19.00;99.90
17948;DHT22;9099;47.958;11.366;2023-07-09T02:36:56;19.10;99.90
17948;DHT22;9099;47.958;11.366;2023-07-09T02:39:23;19.10;99.90
17948;DHT22;9099;47.958;11.366;2023-07-09T02:41:50;19.10;99.90
17948;DHT22;9099;47.958;11.366;2023-07-09T02:44:18;19.00;99.90
17948;DHT22;9099;47.958;11.366;2023-07-09T02:46:45;19.00;99.90
17948;DHT22;9099;47.958;11.366;2023-07-09T02:49:14;19.00;99.90
17948;DHT22;9099;47.958;11.366;2023-07-09T02:51:41;19.00;99.90
17948;DHT22;9099;47.958;11.366;2023-07-09T02:54:08;19.00;99.90
17948;DHT22;9099;47.958;11.366;2023-07-09T02:56:35;19.00;99.90
17948;DHT22;9099;47.958;11.366;2023-07-09T02:59:02;19.00;99.90
17948;DHT22;9099;47.958;11.366;2023-07-09T03:01:29;19.00;99.90
17948;DHT22;9099;47.958;11.366;2023-07-09T03:03:58;19.00;99.90
17948;DHT22;9099;47.958;11.366;2023-07-09T03:06:27;19.00;99.90
17948;DHT22;9099;47.958;11.366;2023-07-09T03:08:54;19.00;99.90
17948;DHT22;9099;47.958;11.366;2023-07-09T03:11:21;18.90;99.90
17948;DHT22;9099;47.958;11.366;2023-07-09T03:13:48;18.90;99.90
17948;DHT22;9099;47.958;11.366;2023-07-09T03:16:15;18.80;99.90
17948;DHT22;9099;47.958;11.366;2023-07-09T03:18:44;18.80;99.90
17948;DHT22;9099;47.958;11.366;2023-07-09T03:21:11;18.70;99.90
17948;DHT22;9099;47.958;11.366;2023-07-09T03:23:41;18.60;99.90
17948;DHT22;9099;47.958;11.366;2023-07-09T03:26:08;18.60;99.90
17948;DHT22;9099;47.958;11.366;2023-07-09T03:28:35;18.60;99.90
17948;DHT22;9099;47.958;11.366;2023-07-09T03:31:01;18.50;99.90
17948;DHT22;9099;47.958;11.366;2023-07-09T03:33:28;18.50;99.90
17948;DHT22;9099;47.958;11.366;2023-07-09T03:35:55;18.50;99.90
17948;DHT22;9099;47.958;11.366;2023-07-09T03:38:22;18.40;99.90
17948;DHT22;9099;47.958;11.366;2023-07-09T03:40:54;18.30;99.90
17948;DHT22;9099;47.958;11.366;2023-07-09T03:43:22;18.30;99.90
17948;DHT22;9099;47.958;11.366;2023-07-09T03:45:50;18.30;99.90
17948;DHT22;9099;47.958;11.366;2023-07-09T03:48:18;18.40;99.90
17948;DHT22;9099;47.958;11.366;2023-07-09T03:50:47;18.40;99.90
17948;DHT22;9099;47.958;11.366;2023-07-09T03:53:14;18.40;99.90
17948;DHT22;9099;47.958;11.366;2023-07-09T03:55:41;18.40;99.90
17948;DHT22;9099;47.958;11.366;2023-07-09T03:58:10;18.40;99.90
17948;DHT22;9099;47.958;11.366;2023-07-09T04:00:36;18.40;99.90
17948;DHT22;9099;47.958;11.366;2023-07-09T04:03:03;18.40;99.90
17948;DHT22;9099;47.958;11.366;2023-07-09T04:05:32;18.50;99.90
17948;DHT22;9099;47.958;11.366;2023-07-09T04:07:58;18.50;99.90
17948;DHT22;9099;47.958;11.366;2023-07-09T04:10:25;18.60;99.90
17948;DHT22;9099;47.958;11.366;2023-07-09T04:12:53;18.60;99.90
17948;DHT22;9099;47.958;11.366;2023-07-09T04:15:21;18.70;99.90
17948;DHT22;9099;47.958;11.366;2023-07-09T04:17:48;18.70;99.90
17948;DHT22;9099;47.958;11.366;2023-07-09T04:20:15;18.80;99.90
17948;DHT22;9099;47.958;11.366;2023-07-09T04:22:42;18.80;99.90
17948;DHT22;9099;47.958;11.366;2023-07-09T04:25:10;18.80;99.90
17948;DHT22;9099;47.958;11.366;2023-07-09T04:27:37;18.90;99.90
17948;DHT22;9099;47.958;11.366;2023-07-09T04:30:07;19.00;99.90
17948;DHT22;9099;47.958;11.366;2023-07-09T04:32:37;19.00;99.90
17948;DHT22;9099;47.958;11.366;2023-07-09T04:35:04;19.00;99.90
17948;DHT22;9099;47.958;11.366;2023-07-09T04:37:32;19.10;99.90
17948;DHT22;9099;47.958;11.366;2023-07-09T04:39:59;19.10;99.90
17948;DHT22;9099;47.958;11.366;2023-07-09T04:42:25;19.20;99.90
17948;DHT22;9099;47.958;11.366;2023-07-09T04:44:52;19.20;99.90
17948;DHT22;9099;47.958;11.366;2023-07-09T04:47:19;19.30;99.90
17948;DHT22;9099;47.958;11.366;2023-07-09T04:49:47;19.30;99.90
17948;DHT22;9099;47.958;11.366;2023-07-09T04:52:14;19.40;99.90
17948;DHT22;9099;47.958;11.366;2023-07-09T04:54:41;19.50;99.90
17948;DHT22;9099;47.958;11.366;2023-07-09T04:57:10;19.60;99.90
17948;DHT22;9099;47.958;11.366;2023-07-09T04:59:36;19.70;99.90
17948;DHT22;9099;47.958;11.366;2023-07-09T05:02:04;19.70;99.90
17948;DHT22;9099;47.958;11.366;2023-07-09T05:04:31;19.80;99.90
17948;DHT22;9099;47.958;11.366;2023-07-09T05:06:59;19.80;99.90
17948;DHT22;9099;47.958;11.366;2023-07-09T05:09:26;19.90;99.90
17948;DHT22;9099;47.958;11.366;2023-07-09T05:11:53;20.00;99.90
17948;DHT22;9099;47.958;11.366;2023-07-09T05:14:20;20.20;99.90
17948;DHT22;9099;47.958;11.366;2023-07-09T05:16:46;20.30;99.90
17948;DHT22;9099;47.958;11.366;2023-07-09T05:19:14;20.40;99.90
17948;DHT22;9099;47.958;11.366;2023-07-09T05:21:41;20.50;99.90
17948;DHT22;9099;47.958;11.366;2023-07-09T05:24:09;20.60;99.90
17948;DHT22;9099;47.958;11.366;2023-07-09T05:26:36;20.70;99.90
17948;DHT22;9099;47.958;11.366;2023-07-09T05:29:03;20.80;99.90
17948;DHT22;9099;47.958;11.366;2023-07-09T05:31:31;20.90;99.90
17948;DHT22;9099;47.958;11.366;2023-07-09T05:33:58;21.00;99.90
17948;DHT22;9099;47.958;11.366;2023-07-09T05:36:25;21.20;99.90
17948;DHT22;9099;47.958;11.366;2023-07-09T05:38:52;21.40;99.90
17948;DHT22;9099;47.958;11.366;2023-07-09T05:41:21;21.70;99.90
17948;DHT22;9099;47.958;11.366;2023-07-09T05:43:49;21.90;99.90
17948;DHT22;9099;47.958;11.366;2023-07-09T05:46:16;22.10;99.90
17948;DHT22;9099;47.958;11.366;2023-07-09T05:48:43;22.20;99.90
17948;DHT22;9099;47.958;11.366;2023-07-09T05:51:10;22.50;99.90
17948;DHT22;9099;47.958;11.366;2023-07-09T05:53:37;22.60;99.90
17948;DHT22;9099;47.958;11.366;2023-07-09T05:56:04;22.80;99.90
17948;DHT22;9099;47.958;11.366;2023-07-09T05:58:32;23.00;99.90
17948;DHT22;9099;47.958;11.366;2023-07-09T06:00:59;23.30;99.90
17948;DHT22;9099;47.958;11.366;2023-07-09T06:03:27;23.40;99.90
17948;DHT22;9099;47.958;11.366;2023-07-09T06:05:54;23.60;99.90
17948;DHT22;9099;47.958;11.366;2023-07-09T06:08:22;23.90;99.90
17948;DHT22;9099;47.958;11.366;2023-07-09T06:10:54;24.00;99.90
17948;DHT22;9099;47.958;11.366;2023-07-09T06:13:21;24.30;99.90
17948;DHT22;9099;47.958;11.366;2023-07-09T06:15:51;24.30;99.90
17948;DHT22;9099;47.958;11.366;2023-07-09T06:18:18;24.50;99.90
17948;DHT22;9099;47.958;11.366;2023-07-09T06:20:49;24.60;99.90
17948;DHT22;9099;47.958;11.366;2023-07-09T06:23:16;24.60;99.90
17948;DHT22;9099;47.958;11.366;2023-07-09T06:25:44;24.70;99.90
17948;DHT22;9099;47.958;11.366;2023-07-09T06:28:13;24.60;99.90
17948;DHT22;9099;47.958;11.366;2023-07-09T06:30:41;24.60;99.90
17948;DHT22;9099;47.958;11.366;2023-07-09T06:33:10;24.70;99.90
17948;DHT22;9099;47.958;11.366;2023-07-09T06:35:38;24.80;99.90
17948;DHT22;9099;47.958;11.366;2023-07-09T06:38:05;24.90;99.90
17948;DHT22;9099;47.958;11.366;2023-07-09T06:40:32;25.10;99.90
17948;DHT22;9099;47.958;11.366;2023-07-09T06:43:00;25.20;99.90
17948;DHT22;9099;47.958;11.366;2023-07-09T06:45:27;25.30;99.90
17948;DHT22;9099;47.958;11.366;2023-07-09T06:47:54;25.50;99.90
17948;DHT22;9099;47.958;11.366;2023-07-09T06:50:22;25.60;99.90
17948;DHT22;9099;47.958;11.366;2023-07-09T06:52:49;25.80;99.90
17948;DHT22;9099;47.958;11.366;2023-07-09T06:55:16;25.90;99.90
17948;DHT22;9099;47.958;11.366;2023-07-09T06:57:43;26.00;99.90
17948;DHT22;9099;47.958;11.366;2023-07-09T07:00:11;26.10;99.90
17948;DHT22;9099;47.958;11.366;2023-07-09T07:02:38;26.20;99.90
17948;DHT22;9099;47.958;11.366;2023-07-09T07:05:05;26.40;99.90
17948;DHT22;9099;47.958;11.366;2023-07-09T07:07:33;26.50;99.90
17948;DHT22;9099;47.958;11.366;2023-07-09T07:10:00;26.60;99.90
17948;DHT22;9099;47.958;11.366;2023-07-09T07:12:28;26.80;99.90
17948;DHT22;9099;47.958;11.366;2023-07-09T07:14:56;26.80;99.90
17948;DHT22;9099;47.958;11.366;2023-07-09T07:17:23;27.00;99.90
17948;DHT22;9099;47.958;11.366;2023-07-09T07:19:50;27.20;99.90
17948;DHT22;9099;47.958;11.366;2023-07-09T07:22:17;27.30;99.90
17948;DHT22;9099;47.958;11.366;2023-07-09T07:24:45;27.40;99.90
17948;DHT22;9099;47.958;11.366;2023-07-09T07:27:12;27.50;99.90
17948;DHT22;9099;47.958;11.366;2023-07-09T07:29:39;27.60;99.90
17948;DHT22;9099;47.958;11.366;2023-07-09T07:32:07;27.80;99.90
17948;DHT22;9099;47.958;11.366;2023-07-09T07:34:34;27.90;99.90
17948;DHT22;9099;47.958;11.366;2023-07-09T07:37:01;28.00;99.90
17948;DHT22;9099;47.958;11.366;2023-07-09T07:39:28;28.10;99.90
17948;DHT22;9099;47.958;11.366;2023-07-09T07:41:56;28.20;99.90
17948;DHT22;9099;47.958;11.366;2023-07-09T07:44:23;28.30;99.90
17948;DHT22;9099;47.958;11.366;2023-07-09T07:46:50;28.30;99.90
17948;DHT22;9099;47.958;11.366;2023-07-09T07:49:17;28.40;99.90
17948;DHT22;9099;47.958;11.366;2023-07-09T07:51:44;28.50;99.90
17948;DHT22;9099;47.958;11.366;2023-07-09T07:54:11;28.60;99.90
17948;DHT22;9099;47.958;11.366;2023-07-09T07:56:38;28.70;99.90
17948;DHT22;9099;47.958;11.366;2023-07-09T07:59:06;28.80;99.90
17948;DHT22;9099;47.958;11.366;2023-07-09T08:01:33;28.80;99.90
17948;DHT22;9099;47.958;11.366;2023-07-09T08:04:01;28.90;99.90
17948;DHT22;9099;47.958;11.366;2023-07-09T08:06:28;29.10;99.90
17948;DHT22;9099;47.958;11.366;2023-07-09T08:08:57;29.40;99.90
17948;DHT22;9099;47.958;11.366;2023-07-09T08:11:24;29.70;99.90
17948;DHT22;9099;47.958;11.366;2023-07-09T08:13:53;29.70;99.90
17948;DHT22;9099;47.958;11.366;2023-07-09T08:16:21;29.80;99.90
17948;DHT22;9099;47.958;11.366;2023-07-09T08:18:48;30.00;99.90
17948;DHT22;9099;47.958;11.366;2023-07-09T08:21:17;30.20;99.90
17948;DHT22;9099;47.958;11.366;2023-07-09T08:23:44;30.40;99.90
17948;DHT22;9099;47.958;11.366;2023-07-09T08:26:11;30.40;99.90
17948;DHT22;9099;47.958;11.366;2023-07-09T08:28:38;30.40;99.90
17948;DHT22;9099;47.958;11.366;2023-07-09T08:31:05;30.50;99.90
17948;DHT22;9099;47.958;11.366;2023-07-09T08:33:33;30.60;99.90
17948;DHT22;9099;47.958;11.366;2023-07-09T08:36:00;30.70;99.90
17948;DHT22;9099;47.958;11.366;2023-07-09T08:38:27;30.70;99.90
17948;DHT22;9099;47.958;11.366;2023-07-09T08:40:57;30.70;99.90
17948;DHT22;9099;47.958;11.366;2023-07-09T08:43:33;30.70;99.90
17948;DHT22;9099;47.958;11.366;2023-07-09T08:46:10;31.00;99.90
17948;DHT22;9099;47.958;11.366;2023-07-09T08:48:45;31.30;99.90
17948;DHT22;9099;47.958;11.366;2023-07-09T08:51:21;31.30;99.90
17948;DHT22;9099;47.958;11.366;2023-07-09T08:53:50;31.20;99.90
17948;DHT22;9099;47.958;11.366;2023-07-09T08:56:18;31.30;99.90
17948;DHT22;9099;47.958;11.366;2023-07-09T08:58:47;31.70;99.90
17948;DHT22;9099;47.958;11.366;2023-07-09T09:01:19;32.00;99.90
17948;DHT22;9099;47.958;11.366;2023-07-09T09:03:49;32.10;99.90
17948;DHT22;9099;47.958;11.366;2023-07-09T09:06:19;32.30;99.90
17948;DHT22;9099;47.958;11.366;2023-07-09T09:08:58;32.50;99.90
17948;DHT22;9099;47.958;11.366;2023-07-09T09:11:37;32.70;99.90
17948;DHT22;9099;47.958;11.366;2023-07-09T09:14:19;32.90;99.90
17948;DHT22;9099;47.958;11.366;2023-07-09T09:16:50;33.00;99.90
17948;DHT22;9099;47.958;11.366;2023-07-09T09:19:22;33.10;99.90
17948;DHT22;9099;47.958;11.366;2023-07-09T09:21:54;33.10;99.90
17948;DHT22;9099;47.958;11.366;2023-07-09T09:24:27;33.20;99.90
17948;DHT22;9099;47.958;11.366;2023-07-09T09:26:58;33.20;99.90
17948;DHT22;9099;47.958;11.366;2023-07-09T09:29:26;33.20;99.90
17948;DHT22;9099;47.958;11.366;2023-07-09T09:31:54;33.20;99.90
17948;DHT22;9099;47.958;11.366;2023-07-09T09:34:26;33.30;99.90
17948;DHT22;9099;47.958;11.366;2023-07-09T09:36:53;33.60;99.90
17948;DHT22;9099;47.958;11.366;2023-07-09T09:39:20;33.60;99.90
17948;DHT22;9099;47.958;11.366;2023-07-09T09:41:47;33.90;99.90
17948;DHT22;9099;47.958;11.366;2023-07-09T09:44:19;34.00;99.90
17948;DHT22;9099;47.958;11.366;2023-07-09T09:46:48;34.20;99.90
17948;DHT22;9099;47.958;11.366;2023-07-09T09:49:15;34.40;99.10
17948;DHT22;9099;47.958;11.366;2023-07-09T09:51:45;34.40;99.20
17948;DHT22;9099;47.958;11.366;2023-07-09T09:54:17;34.50;98.30
17948;DHT22;9099;47.958;11.366;2023-07-09T09:56:44;34.40;98.00
17948;DHT22;9099;47.958;11.366;2023-07-09T09:59:18;34.40;97.70
17948;DHT22;9099;47.958;11.366;2023-07-09T10:01:46;34.60;98.80
17948;DHT22;9099;47.958;11.366;2023-07-09T10:04:18;34.60;98.00
17948;DHT22;9099;47.958;11.366;2023-07-09T10:06:50;34.60;97.80
17948;DHT22;9099;47.958;11.366;2023-07-09T10:09:26;35.10;97.60
17948;DHT22;9099;47.958;11.366;2023-07-09T10:11:58;35.00;96.20
17948;DHT22;9099;47.958;11.366;2023-07-09T10:14:33;35.10;97.10
17948;DHT22;9099;47.958;11.366;2023-07-09T10:17:15;35.30;98.50
17948;DHT22;9099;47.958;11.366;2023-07-09T10:19:48;35.60;96.60
17948;DHT22;9099;47.958;11.366;2023-07-09T10:22:35;35.70;95.70
17948;DHT22;9099;47.958;11.366;2023-07-09T10:25:13;35.80;95.50
17948;DHT22;9099;47.958;11.366;2023-07-09T10:27:53;36.10;96.80
17948;DHT22;9099;47.958;11.366;2023-07-09T10:30:35;36.50;95.20
17948;DHT22;9099;47.958;11.366;2023-07-09T10:33:08;36.70;93.60
17948;DHT22;9099;47.958;11.366;2023-07-09T10:35:43;36.70;93.40
17948;DHT22;9099;47.958;11.366;2023-07-09T10:38:22;36.60;92.50
17948;DHT22;9099;47.958;11.366;2023-07-09T10:40:56;36.50;92.90
17948;DHT22;9099;47.958;11.366;2023-07-09T10:43:34;36.50;92.90
17948;DHT22;9099;47.958;11.366;2023-07-09T10:46:05;36.70;92.60
17948;DHT22;9099;47.958;11.366;2023-07-09T10:48:39;36.80;94.10
17948;DHT22;9099;47.958;11.366;2023-07-09T10:51:13;37.10;93.20
17948;DHT22;9099;47.958;11.366;2023-07-09T10:53:46;37.10;90.90
17948;DHT22;9099;47.958;11.366;2023-07-09T10:56:17;37.10;92.50
17948;DHT22;9099;47.958;11.366;2023-07-09T10:58:51;37.50;91.60
17948;DHT22;9099;47.958;11.366;2023-07-09T11:01:28;37.60;90.20
17948;DHT22;9099;47.958;11.366;2023-07-09T11:03:59;37.70;90.90
17948;DHT22;9099;47.958;11.366;2023-07-09T11:06:32;37.80;91.40
17948;DHT22;9099;47.958;11.366;2023-07-09T11:09:04;38.00;90.40
17948;DHT22;9099;47.958;11.366;2023-07-09T11:11:36;38.10;90.70
17948;DHT22;9099;47.958;11.366;2023-07-09T11:14:10;38.30;90.60
17948;DHT22;9099;47.958;11.366;2023-07-09T11:16:40;38.10;89.10
17948;DHT22;9099;47.958;11.366;2023-07-09T11:19:14;38.10;90.90
17948;DHT22;9099;47.958;11.366;2023-07-09T11:21:45;38.30;90.30
17948;DHT22;9099;47.958;11.366;2023-07-09T11:24:43;38.20;87.30
17948;DHT22;9099;47.958;11.366;2023-07-09T11:27:20;38.40;88.00
17948;DHT22;9099;47.958;11.366;2023-07-09T11:29:48;38.30;86.00
17948;DHT22;9099;47.958;11.366;2023-07-09T11:32:20;38.20;87.00
17948;DHT22;9099;47.958;11.366;2023-07-09T11:34:48;38.30;86.40
17948;DHT22;9099;47.958;11.366;2023-07-09T11:37:15;38.40;86.60
17948;DHT22;9099;47.958;11.366;2023-07-09T11:39:46;38.40;88.20
17948;DHT22;9099;47.958;11.366;2023-07-09T11:42:28;38.20;87.30
17948;DHT22;9099;47.958;11.366;2023-07-09T11:45:02;37.80;90.10
17948;DHT22;9099;47.958;11.366;2023-07-09T11:47:33;37.90;86.60
17948;DHT22;9099;47.958;11.366;2023-07-09T11:50:03;37.90;87.50
17948;DHT22;9099;47.958;11.366;2023-07-09T11:52:33;38.00;85.00
17948;DHT22;9099;47.958;11.366;2023-07-09T11:55:26;38.00;85.40
17948;DHT22;9099;47.958;11.366;2023-07-09T11:57:54;37.80;82.20
17948;DHT22;9099;47.958;11.366;2023-07-09T12:00:22;37.70;82.70
17948;DHT22;9099;47.958;11.366;2023-07-09T12:02:50;37.50;82.70
17948;DHT22;9099;47.958;11.366;2023-07-09T12:05:20;37.30;84.30
17948;DHT22;9099;47.958;11.366;2023-07-09T12:07:48;37.40;85.10
17948;DHT22;9099;47.958;11.366;2023-07-09T12:10:22;37.10;83.10
17948;DHT22;9099;47.958;11.366;2023-07-09T12:12:54;37.00;81.50
17948;DHT22;9099;47.958;11.366;2023-07-09T12:15:24;36.80;80.40
17948;DHT22;9099;47.958;11.366;2023-07-09T12:17:55;36.80;83.40
17948;DHT22;9099;47.958;11.366;2023-07-09T12:20:23;36.90;80.60
17948;DHT22;9099;47.958;11.366;2023-07-09T12:22:49;37.00;81.00
17948;DHT22;9099;47.958;11.366;2023-07-09T12:25:23;37.10;79.60
17948;DHT22;9099;47.958;11.366;2023-07-09T12:27:51;36.30;79.60
17948;DHT22;9099;47.958;11.366;2023-07-09T12:30:18;36.20;80.10
17948;DHT22;9099;47.958;11.366;2023-07-09T12:32:46;36.70;81.10
17948;DHT22;9099;47.958;11.366;2023-07-09T12:35:16;37.30;79.70
17948;DHT22;9099;47.958;11.366;2023-07-09T12:37:45;37.50;82.70
17948;DHT22;9099;47.958;11.366;2023-07-09T12:40:15;38.00;82.20
17948;DHT22;9099;47.958;11.366;2023-07-09T12:42:44;38.30;84.50
17948;DHT22;9099;47.958;11.366;2023-07-09T12:45:16;38.20;83.10
17948;DHT22;9099;47.958;11.366;2023-07-09T12:47:44;38.30;86.60
17948;DHT22;9099;47.958;11.366;2023-07-09T12:50:21;38.30;79.10
17948;DHT22;9099;47.958;11.366;2023-07-09T12:52:49;38.40;77.80
17948;DHT22;9099;47.958;11.366;2023-07-09T12:55:20;38.30;78.70
17948;DHT22;9099;47.958;11.366;2023-07-09T12:57:49;38.30;82.10
17948;DHT22;9099;47.958;11.366;2023-07-09T13:00:17;38.20;79.70
17948;DHT22;9099;47.958;11.366;2023-07-09T13:02:44;38.00;81.70
17948;DHT22;9099;47.958;11.366;2023-07-09T13:05:20;37.80;79.80
17948;DHT22;9099;47.958;11.366;2023-07-09T13:07:50;37.90;80.00
17948;DHT22;9099;47.958;11.366;2023-07-09T13:10:19;38.00;82.50
17948;DHT22;9099;47.958;11.366;2023-07-09T13:12:51;38.30;78.30
17948;DHT22;9099;47.958;11.366;2023-07-09T13:15:27;38.40;77.80
17948;DHT22;9099;47.958;11.366;2023-07-09T13:17:59;38.30;77.80
17948;DHT22;9099;47.958;11.366;2023-07-09T13:20:26;38.30;78.50
17948;DHT22;9099;47.958;11.366;2023-07-09T13:22:53;38.30;76.30
17948;DHT22;9099;47.958;11.366;2023-07-09T13:25:20;38.20;81.20
17948;DHT22;9099;47.958;11.366;2023-07-09T13:27:47;38.00;78.10
17948;DHT22;9099;47.958;11.366;2023-07-09T13:30:16;37.70;78.10
17948;DHT22;9099;47.958;11.366;2023-07-09T13:32:44;37.80;78.80
17948;DHT22;9099;47.958;11.366;2023-07-09T13:35:14;37.60;82.50
17948;DHT22;9099;47.958;11.366;2023-07-09T13:37:42;37.70;78.60
17948;DHT22;9099;47.958;11.366;2023-07-09T13:40:11;37.60;79.50
17948;DHT22;9099;47.958;11.366;2023-07-09T13:42:38;37.70;81.60
17948;DHT22;9099;47.958;11.366;2023-07-09T13:45:18;37.80;77.90
17948;DHT22;9099;47.958;11.366;2023-07-09T13:47:45;38.00;79.50
17948;DHT22;9099;47.958;11.366;2023-07-09T13:50:12;37.90;80.50
17948;DHT22;9099;47.958;11.366;2023-07-09T13:52:40;38.10;79.00
17948;DHT22;9099;47.958;11.366;2023-07-09T13:55:18;38.20;80.20
17948;DHT22;9099;47.958;11.366;2023-07-09T13:57:46;38.20;77.90
17948;DHT22;9099;47.958;11.366;2023-07-09T14:00:13;38.00;76.70
17948;DHT22;9099;47.958;11.366;2023-07-09T14:02:46;37.80;80.00
17948;DHT22;9099;47.958;11.366;2023-07-09T14:05:13;37.80;78.00
17948;DHT22;9099;47.958;11.366;2023-07-09T14:07:41;37.90;77.40
17948;DHT22;9099;47.958;11.366;2023-07-09T14:10:12;37.80;79.30
17948;DHT22;9099;47.958;11.366;2023-07-09T14:12:42;37.90;78.50
17948;DHT22;9099;47.958;11.366;2023-07-09T14:15:15;37.90;77.80
17948;DHT22;9099;47.958;11.366;2023-07-09T14:17:44;37.80;80.00
17948;DHT22;9099;47.958;11.366;2023-07-09T14:20:13;37.90;77.00
17948;DHT22;9099;47.958;11.366;2023-07-09T14:22:40;37.80;76.30
17948;DHT22;9099;47.958;11.366;2023-07-09T14:25:15;37.60;76.20
17948;DHT22;9099;47.958;11.366;2023-07-09T14:27:42;37.40;79.60
17948;DHT22;9099;47.958;11.366;2023-07-09T14:30:14;37.40;80.10
17948;DHT22;9099;47.958;11.366;2023-07-09T14:32:44;37.50;76.70
17948;DHT22;9099;47.958;11.366;2023-07-09T14:35:14;37.50;76.50
17948;DHT22;9099;47.958;11.366;2023-07-09T14:37:42;37.20;75.50
17948;DHT22;9099;47.958;11.366;2023-07-09T14:40:10;36.90;76.00
17948;DHT22;9099;47.958;11.366;2023-07-09T14:42:38;36.80;78.40
17948;DHT22;9099;47.958;11.366;2023-07-09T14:45:15;36.60;75.70
17948;DHT22;9099;47.958;11.366;2023-07-09T14:47:44;36.60;74.60
17948;DHT22;9099;47.958;11.366;2023-07-09T14:50:11;36.70;74.30
17948;DHT22;9099;47.958;11.366;2023-07-09T14:52:39;36.50;73.50
17948;DHT22;9099;47.958;11.366;2023-07-09T14:55:12;36.40;74.30
17948;DHT22;9099;47.958;11.366;2023-07-09T14:57:39;36.30;75.70
17948;DHT22;9099;47.958;11.366;2023-07-09T15:00:08;36.00;77.00
17948;DHT22;9099;47.958;11.366;2023-07-09T15:02:41;36.10;77.80
17948;DHT22;9099;47.958;11.366;2023-07-09T15:05:16;36.30;77.50
17948;DHT22;9099;47.958;11.366;2023-07-09T15:07:43;36.30;80.10
17948;DHT22;9099;47.958;11.366;2023-07-09T15:10:13;36.30;81.20
17948;DHT22;9099;47.958;11.366;2023-07-09T15:12:41;36.30;81.60
17948;DHT22;9099;47.958;11.366;2023-07-09T15:15:15;36.30;79.60
17948;DHT22;9099;47.958;11.366;2023-07-09T15:17:43;36.20;74.60
17948;DHT22;9099;47.958;11.366;2023-07-09T15:20:15;36.10;78.00
17948;DHT22;9099;47.958;11.366;2023-07-09T15:22:44;36.10;78.30
17948;DHT22;9099;47.958;11.366;2023-07-09T15:25:15;36.10;78.50
17948;DHT22;9099;47.958;11.366;2023-07-09T15:27:43;35.80;75.80
17948;DHT22;9099;47.958;11.366;2023-07-09T15:30:15;35.80;77.40
17948;DHT22;9099;47.958;11.366;2023-07-09T15:32:43;35.70;76.50
17948;DHT22;9099;47.958;11.366;2023-07-09T15:35:10;35.70;77.60
17948;DHT22;9099;47.958;11.366;2023-07-09T15:37:38;35.50;75.60
17948;DHT22;9099;47.958;11.366;2023-07-09T15:40:16;35.30;77.30
17948;DHT22;9099;47.958;11.366;2023-07-09T15:42:43;35.10;74.00
17948;DHT22;9099;47.958;11.366;2023-07-09T15:45:13;34.80;74.20